sensor_id;sensor_type;location;lat;lon;timestamp;temperature;humidity
13817;DHT22;6979;52.116;5.286;2023-04-07T00:02:07;13.20;99.90
13817;DHT22;6979;52.116;5.286;2023-04-07T00:04:34;13.10;99.90
13817;DHT22;6979;52.116;5.286;2023-04-07T00:07:00;13.10;99.90
13817;DHT22;6979;52.116;5.286;2023-04-07T00:09:30;13.10;99.90
13817;DHT22;6979;52.116;5.286;2023-04-07T00:11:56;13.10;99.90
13817;DHT22;6979;52.116;5.286;2023-04-07T00:14:29;13.10;99.90
13817;DHT22;6979;52.116;5.286;2023-04-07T00:16:59;13.10;99.90
13817;DHT22;6979;52.116;5.286;2023-04-07T00:19:26;13.00;99.90
13817;DHT22;6979;52.116;5.286;2023-04-07T00:21:54;13.10;99.90
13817;DHT22;6979;52.116;5.286;2023-04-07T00:24:21;13.00;99.90
13817;DHT22;6979;52.116;5.286;2023-04-07T00:26:51;13.10;99.90
13817;DHT22;6979;52.116;5.286;2023-04-07T00:29:19;13.10;99.90
13817;DHT22;6979;52.116;5.286;2023-04-07T00:31:47;13.10;99.90
13817;DHT22;6979;52.116;5.286;2023-04-07T00:34:14;13.10;99.90
13817;DHT22;6979;52.116;5.286;2023-04-07T00:36:43;13.10;99.90
13817;DHT22;6979;52.116;5.286;2023-04-07T00:39:16;13.00;99.90
13817;DHT22;6979;52.116;5.286;2023-04-07T00:41:43;13.00;99.90
13817;DHT22;6979;52.116;5.286;2023-04-07T00:44:12;13.00;99.90
13817;DHT22;6979;52.116;5.286;2023-04-07T00:46:39;13.00;99.90
13817;DHT22;6979;52.116;5.286;2023-04-07T00:49:07;13.00;99.90
13817;DHT22;6979;52.116;5.286;2023-04-07T00:51:34;13.00;99.90
13817;DHT22;6979;52.116;5.286;2023-04-07T00:54:03;13.00;99.90
13817;DHT22;6979;52.116;5.286;2023-04-07T00:56:30;12.90;99.90
13817;DHT22;6979;52.116;5.286;2023-04-07T00:59:02;13.00;99.90
13817;DHT22;6979;52.116;5.286;2023-04-07T01:01:36;13.00;99.90
13817;DHT22;6979;52.116;5.286;2023-04-07T01:04:06;13.00;99.90
13817;DHT22;6979;52.116;5.286;2023-04-07T01:06:37;13.00;99.90
13817;DHT22;6979;52.116;5.286;2023-04-07T01:09:12;13.00;99.90
13817;DHT22;6979;52.116;5.286;2023-04-07T01:11:44;13.00;99.90
13817;DHT22;6979;52.116;5.286;2023-04-07T01:14:18;13.00;99.90
13817;DHT22;6979;52.116;5.286;2023-04-07T01:16:55;13.00;99.90
13817;DHT22;6979;52.116;5.286;2023-04-07T01:19:35;13.00;99.90
13817;DHT22;6979;52.116;5.286;2023-04-07T01:22:07;13.00;99.90
13817;DHT22;6979;52.116;5.286;2023-04-07T01:24:53;13.00;99.90
13817;DHT22;6979;52.116;5.286;2023-04-07T01:27:39;13.00;99.90
13817;DHT22;6979;52.116;5.286;2023-04-07T01:30:11;13.00;99.90
13817;DHT22;6979;52.116;5.286;2023-04-07T01:32:40;13.00;99.90
13817;DHT22;6979;52.116;5.286;2023-04-07T01:35:11;13.00;99.90
13817;DHT22;6979;52.116;5.286;2023-04-07T01:37:39;12.90;99.90
13817;DHT22;6979;52.116;5.286;2023-04-07T01:40:07;12.90;99.90
13817;DHT22;6979;52.116;5.286;2023-04-07T01:42:35;12.90;99.90
13817;DHT22;6979;52.116;5.286;2023-04-07T01:45:10;13.00;99.90
13817;DHT22;6979;52.116;5.286;2023-04-07T01:47:38;13.00;99.90
13817;DHT22;6979;52.116;5.286;2023-04-07T01:50:09;13.00;99.90
13817;DHT22;6979;52.116;5.286;2023-04-07T01:52:37;13.00;99.90
13817;DHT22;6979;52.116;5.286;2023-04-07T01:55:08;13.00;99.90
13817;DHT22;6979;52.116;5.286;2023-04-07T01:57:40;13.00;99.90
13817;DHT22;6979;52.116;5.286;2023-04-07T02:00:16;13.00;99.90
13817;DHT22;6979;52.116;5.286;2023-04-07T02:02:54;13.00;99.90
13817;DHT22;6979;52.116;5.286;2023-04-07T02:05:27;13.00;99.90
13817;DHT22;6979;52.116;5.286;2023-04-07T02:08:00;13.00;99.90
13817;DHT22;6979;52.116;5.286;2023-04-07T02:10:29;13.00;99.90
13817;DHT22;6979;52.116;5.286;2023-04-07T02:13:02;12.90;99.90
13817;DHT22;6979;52.116;5.286;2023-04-07T02:15:35;12.90;99.90
13817;DHT22;6979;52.116;5.286;2023-04-07T02:18:02;12.90;99.90
13817;DHT22;6979;52.116;5.286;2023-04-07T02:20:33;12.90;99.90
13817;DHT22;6979;52.116;5.286;2023-04-07T02:23:02;12.90;99.90
13817;DHT22;6979;52.116;5.286;2023-04-07T02:25:31;12.90;99.90
13817;DHT22;6979;52.116;5.286;2023-04-07T02:27:59;12.90;99.90
13817;DHT22;6979;52.116;5.286;2023-04-07T02:30:27;12.90;99.90
13817;DHT22;6979;52.116;5.286;2023-04-07T02:32:56;12.80;99.90
13817;DHT22;6979;52.116;5.286;2023-04-07T02:35:23;12.90;99.90
13817;DHT22;6979;52.116;5.286;2023-04-07T02:37:50;12.80;99.90
13817;DHT22;6979;52.116;5.286;2023-04-07T02:40:17;12.80;99.90
13817;DHT22;6979;52.116;5.286;2023-04-07T02:42:44;12.90;99.90
13817;DHT22;6979;52.116;5.286;2023-04-07T02:45:11;12.90;99.90
13817;DHT22;6979;52.116;5.286;2023-04-07T02:47:38;12.90;99.90
13817;DHT22;6979;52.116;5.286;2023-04-07T02:50:10;12.90;99.90
13817;DHT22;6979;52.116;5.286;2023-04-07T02:52:37;12.90;99.90
13817;DHT22;6979;52.116;5.286;2023-04-07T02:55:10;12.90;99.90
13817;DHT22;6979;52.116;5.286;2023-04-07T02:57:37;12.90;99.90
13817;DHT22;6979;52.116;5.286;2023-04-07T03:00:09;12.90;99.90
13817;DHT22;6979;52.116;5.286;2023-04-07T03:03:02;12.90;99.90
13817;DHT22;6979;52.116;5.286;2023-04-07T03:05:34;12.90;99.90
13817;DHT22;6979;52.116;5.286;2023-04-07T03:08:02;12.80;99.90
13817;DHT22;6979;52.116;5.286;2023-04-07T03:10:32;12.90;99.90
13817;DHT22;6979;52.116;5.286;2023-04-07T03:12:58;12.90;99.90
13817;DHT22;6979;52.116;5.286;2023-04-07T03:15:26;12.90;99.90
13817;DHT22;6979;52.116;5.286;2023-04-07T03:17:54;12.80;99.90
13817;DHT22;6979;52.116;5.286;2023-04-07T03:20:22;12.90;99.90
13817;DHT22;6979;52.116;5.286;2023-04-07T03:22:50;12.80;99.90
13817;DHT22;6979;52.116;5.286;2023-04-07T03:25:22;12.80;99.90
13817;DHT22;6979;52.116;5.286;2023-04-07T03:27:50;12.80;99.90
13817;DHT22;6979;52.116;5.286;2023-04-07T03:30:17;12.80;99.90
13817;DHT22;6979;52.116;5.286;2023-04-07T03:32:45;12.80;99.90
13817;DHT22;6979;52.116;5.286;2023-04-07T03:35:12;12.80;99.90
13817;DHT22;6979;52.116;5.286;2023-04-07T03:37:39;12.80;99.90
13817;DHT22;6979;52.116;5.286;2023-04-07T03:40:13;12.80;99.90
13817;DHT22;6979;52.116;5.286;2023-04-07T03:42:40;12.90;99.90
13817;DHT22;6979;52.116;5.286;2023-04-07T03:45:09;12.80;99.90
13817;DHT22;6979;52.116;5.286;2023-04-07T03:47:41;12.80;99.90
13817;DHT22;6979;52.116;5.286;2023-04-07T03:50:09;12.90;99.90
13817;DHT22;6979;52.116;5.286;2023-04-07T03:52:46;12.80;99.90
13817;DHT22;6979;52.116;5.286;2023-04-07T03:55:23;12.90;99.90
13817;DHT22;6979;52.116;5.286;2023-04-07T03:57:57;12.80;99.90
13817;DHT22;6979;52.116;5.286;2023-04-07T04:00:29;12.90;99.90
13817;DHT22;6979;52.116;5.286;2023-04-07T04:03:07;12.90;99.90
13817;DHT22;6979;52.116;5.286;2023-04-07T04:05:39;12.90;99.90
13817;DHT22;6979;52.116;5.286;2023-04-07T04:08:09;12.80;99.90
13817;DHT22;6979;52.116;5.286;2023-04-07T04:10:39;12.90;99.90
13817;DHT22;6979;52.116;5.286;2023-04-07T04:13:08;12.90;99.90
13817;DHT22;6979;52.116;5.286;2023-04-07T04:15:36;12.90;99.90
13817;DHT22;6979;52.116;5.286;2023-04-07T04:18:07;12.90;99.90
13817;DHT22;6979;52.116;5.286;2023-04-07T04:20:34;12.90;99.90
13817;DHT22;6979;52.116;5.286;2023-04-07T04:23:02;12.80;99.90
13817;DHT22;6979;52.116;5.286;2023-04-07T04:25:29;12.80;99.90
13817;DHT22;6979;52.116;5.286;2023-04-07T04:27:58;12.90;99.90
13817;DHT22;6979;52.116;5.286;2023-04-07T04:30:26;12.90;99.90
13817;DHT22;6979;52.116;5.286;2023-04-07T04:33:00;12.80;99.90
13817;DHT22;6979;52.116;5.286;2023-04-07T04:35:44;12.90;99.90
13817;DHT22;6979;52.116;5.286;2023-04-07T04:38:16;12.90;99.90
13817;DHT22;6979;52.116;5.286;2023-04-07T04:40:50;12.90;99.90
13817;DHT22;6979;52.116;5.286;2023-04-07T04:43:23;12.90;99.90
13817;DHT22;6979;52.116;5.286;2023-04-07T04:45:50;12.90;99.90
13817;DHT22;6979;52.116;5.286;2023-04-07T04:48:21;12.90;99.90
13817;DHT22;6979;52.116;5.286;2023-04-07T04:50:48;12.90;99.90
13817;DHT22;6979;52.116;5.286;2023-04-07T04:53:15;12.90;99.90
13817;DHT22;6979;52.116;5.286;2023-04-07T04:55:50;12.90;99.90
13817;DHT22;6979;52.116;5.286;2023-04-07T04:58:23;12.90;99.90
13817;DHT22;6979;52.116;5.286;2023-04-07T05:00:54;12.90;99.90
13817;DHT22;6979;52.116;5.286;2023-04-07T05:03:27;12.90;99.90
13817;DHT22;6979;52.116;5.286;2023-04-07T05:05:57;12.90;99.90
13817;DHT22;6979;52.116;5.286;2023-04-07T05:08:25;12.90;99.90
13817;DHT22;6979;52.116;5.286;2023-04-07T05:10:52;12.90;99.90
13817;DHT22;6979;52.116;5.286;2023-04-07T05:13:23;12.90;99.90
13817;DHT22;6979;52.116;5.286;2023-04-07T05:15:53;12.90;99.90
13817;DHT22;6979;52.116;5.286;2023-04-07T05:18:20;12.90;99.90
13817;DHT22;6979;52.116;5.286;2023-04-07T05:20:48;12.90;99.90
13817;DHT22;6979;52.116;5.286;2023-04-07T05:23:16;12.90;99.90
13817;DHT22;6979;52.116;5.286;2023-04-07T05:25:46;13.00;99.90
13817;DHT22;6979;52.116;5.286;2023-04-07T05:28:13;12.90;99.90
13817;DHT22;6979;52.116;5.286;2023-04-07T05:30:41;12.90;99.90
13817;DHT22;6979;52.116;5.286;2023-04-07T05:33:08;13.00;99.90
13817;DHT22;6979;52.116;5.286;2023-04-07T05:35:43;13.00;99.90
13817;DHT22;6979;52.116;5.286;2023-04-07T05:38:10;12.90;99.90
13817;DHT22;6979;52.116;5.286;2023-04-07T05:40:38;12.90;99.90
13817;DHT22;6979;52.116;5.286;2023-04-07T05:43:08;12.90;99.90
13817;DHT22;6979;52.116;5.286;2023-04-07T05:45:36;12.90;99.90
13817;DHT22;6979;52.116;5.286;2023-04-07T05:48:08;12.90;99.90
13817;DHT22;6979;52.116;5.286;2023-04-07T05:50:43;12.90;99.90
13817;DHT22;6979;52.116;5.286;2023-04-07T05:53:14;12.90;99.90
13817;DHT22;6979;52.116;5.286;2023-04-07T05:55:41;12.90;99.90
13817;DHT22;6979;52.116;5.286;2023-04-07T05:58:13;12.90;99.90
13817;DHT22;6979;52.116;5.286;2023-04-07T06:00:46;12.90;99.90
13817;DHT22;6979;52.116;5.286;2023-04-07T06:03:17;12.90;99.90
13817;DHT22;6979;52.116;5.286;2023-04-07T06:06:04;12.90;99.90
13817;DHT22;6979;52.116;5.286;2023-04-07T06:08:31;12.90;99.90
13817;DHT22;6979;52.116;5.286;2023-04-07T06:10:58;12.90;99.90
13817;DHT22;6979;52.116;5.286;2023-04-07T06:13:26;12.90;99.90
13817;DHT22;6979;52.116;5.286;2023-04-07T06:15:53;12.90;99.90
13817;DHT22;6979;52.116;5.286;2023-04-07T06:18:22;12.90;99.90
13817;DHT22;6979;52.116;5.286;2023-04-07T06:20:49;12.90;99.90
13817;DHT22;6979;52.116;5.286;2023-04-07T06:23:15;12.90;99.90
13817;DHT22;6979;52.116;5.286;2023-04-07T06:25:42;12.90;99.90
13817;DHT22;6979;52.116;5.286;2023-04-07T06:28:09;12.90;99.90
13817;DHT22;6979;52.116;5.286;2023-04-07T06:30:37;12.90;99.90
13817;DHT22;6979;52.116;5.286;2023-04-07T06:33:08;12.90;99.90
13817;DHT22;6979;52.116;5.286;2023-04-07T06:35:39;12.90;99.90
13817;DHT22;6979;52.116;5.286;2023-04-07T06:38:06;12.90;99.90
13817;DHT22;6979;52.116;5.286;2023-04-07T06:40:33;12.90;99.90
13817;DHT22;6979;52.116;5.286;2023-04-07T06:43:00;12.90;99.90
13817;DHT22;6979;52.116;5.286;2023-04-07T06:45:41;13.00;99.90
13817;DHT22;6979;52.116;5.286;2023-04-07T06:48:08;13.00;99.90
13817;DHT22;6979;52.116;5.286;2023-04-07T06:50:36;13.00;99.90
13817;DHT22;6979;52.116;5.286;2023-04-07T06:53:03;13.00;99.90
13817;DHT22;6979;52.116;5.286;2023-04-07T06:55:31;13.00;99.90
13817;DHT22;6979;52.116;5.286;2023-04-07T06:57:58;13.00;99.90
13817;DHT22;6979;52.116;5.286;2023-04-07T07:00:25;13.00;99.90
13817;DHT22;6979;52.116;5.286;2023-04-07T07:02:54;13.00;99.90
13817;DHT22;6979;52.116;5.286;2023-04-07T07:05:21;13.00;99.90
13817;DHT22;6979;52.116;5.286;2023-04-07T07:07:51;13.10;99.90
13817;DHT22;6979;52.116;5.286;2023-04-07T07:10:18;13.00;99.90
13817;DHT22;6979;52.116;5.286;2023-04-07T07:12:50;13.10;99.90
13817;DHT22;6979;52.116;5.286;2023-04-07T07:15:17;13.10;99.90
13817;DHT22;6979;52.116;5.286;2023-04-07T07:17:44;13.10;99.90
13817;DHT22;6979;52.116;5.286;2023-04-07T07:20:11;13.10;99.90
13817;DHT22;6979;52.116;5.286;2023-04-07T07:22:39;13.10;99.90
13817;DHT22;6979;52.116;5.286;2023-04-07T07:25:08;13.10;99.90
13817;DHT22;6979;52.116;5.286;2023-04-07T07:27:35;13.20;99.90
13817;DHT22;6979;52.116;5.286;2023-04-07T07:30:03;13.20;99.90
13817;DHT22;6979;52.116;5.286;2023-04-07T07:32:30;13.20;99.90
13817;DHT22;6979;52.116;5.286;2023-04-07T07:34:57;13.20;99.90
13817;DHT22;6979;52.116;5.286;2023-04-07T07:37:24;13.20;99.90
13817;DHT22;6979;52.116;5.286;2023-04-07T07:39:52;13.30;99.90
13817;DHT22;6979;52.116;5.286;2023-04-07T07:42:29;13.30;99.90
13817;DHT22;6979;52.116;5.286;2023-04-07T07:44:56;13.30;99.90
13817;DHT22;6979;52.116;5.286;2023-04-07T07:47:26;13.30;99.90
13817;DHT22;6979;52.116;5.286;2023-04-07T07:49:53;13.40;99.90
13817;DHT22;6979;52.116;5.286;2023-04-07T07:52:20;13.30;99.90
13817;DHT22;6979;52.116;5.286;2023-04-07T07:54:47;13.40;99.90
13817;DHT22;6979;52.116;5.286;2023-04-07T07:57:14;13.40;99.90
13817;DHT22;6979;52.116;5.286;2023-04-07T07:59:42;13.40;99.90
13817;DHT22;6979;52.116;5.286;2023-04-07T08:02:10;13.40;99.90
13817;DHT22;6979;52.116;5.286;2023-04-07T08:04:37;13.50;99.90
13817;DHT22;6979;52.116;5.286;2023-04-07T08:07:04;13.50;99.90
13817;DHT22;6979;52.116;5.286;2023-04-07T08:09:32;13.50;99.90
13817;DHT22;6979;52.116;5.286;2023-04-07T08:11:59;13.60;99.90
13817;DHT22;6979;52.116;5.286;2023-04-07T08:14:26;13.60;99.90
13817;DHT22;6979;52.116;5.286;2023-04-07T08:16:58;13.60;99.90
13817;DHT22;6979;52.116;5.286;2023-04-07T08:19:25;13.60;99.90
13817;DHT22;6979;52.116;5.286;2023-04-07T08:21:52;13.70;99.90
13817;DHT22;6979;52.116;5.286;2023-04-07T08:24:19;13.70;99.90
13817;DHT22;6979;52.116;5.286;2023-04-07T08:26:46;13.70;99.90
13817;DHT22;6979;52.116;5.286;2023-04-07T08:29:14;13.70;99.90
13817;DHT22;6979;52.116;5.286;2023-04-07T08:31:41;13.70;99.90
13817;DHT22;6979;52.116;5.286;2023-04-07T08:34:09;13.70;99.90
13817;DHT22;6979;52.116;5.286;2023-04-07T08:36:38;13.70;99.90
13817;DHT22;6979;52.116;5.286;2023-04-07T08:39:05;13.80;99.90
13817;DHT22;6979;52.116;5.286;2023-04-07T08:41:36;13.80;99.90
13817;DHT22;6979;52.116;5.286;2023-04-07T08:44:03;13.80;99.90
13817;DHT22;6979;52.116;5.286;2023-04-07T08:46:31;13.80;99.90
13817;DHT22;6979;52.116;5.286;2023-04-07T08:49:01;13.90;99.90
13817;DHT22;6979;52.116;5.286;2023-04-07T08:51:31;13.90;99.90
13817;DHT22;6979;52.116;5.286;2023-04-07T08:54:02;13.90;99.90
13817;DHT22;6979;52.116;5.286;2023-04-07T08:56:31;13.90;99.90
13817;DHT22;6979;52.116;5.286;2023-04-07T08:58:59;13.90;99.90
13817;DHT22;6979;52.116;5.286;2023-04-07T09:01:26;13.90;99.90
13817;DHT22;6979;52.116;5.286;2023-04-07T09:03:57;13.90;99.90
13817;DHT22;6979;52.116;5.286;2023-04-07T09:06:24;14.00;99.90
13817;DHT22;6979;52.116;5.286;2023-04-07T09:08:55;14.00;99.90
13817;DHT22;6979;52.116;5.286;2023-04-07T09:11:22;14.00;99.90
13817;DHT22;6979;52.116;5.286;2023-04-07T09:13:49;14.00;99.90
13817;DHT22;6979;52.116;5.286;2023-04-07T09:16:16;14.00;99.90
13817;DHT22;6979;52.116;5.286;2023-04-07T09:18:43;14.10;99.90
13817;DHT22;6979;52.116;5.286;2023-04-07T09:21:10;14.10;99.90
13817;DHT22;6979;52.116;5.286;2023-04-07T09:23:39;14.10;99.90
13817;DHT22;6979;52.116;5.286;2023-04-07T09:26:21;14.10;99.90
13817;DHT22;6979;52.116;5.286;2023-04-07T09:28:51;14.10;99.90
13817;DHT22;6979;52.116;5.286;2023-04-07T09:31:18;14.20;99.90
13817;DHT22;6979;52.116;5.286;2023-04-07T09:33:47;14.20;99.90
13817;DHT22;6979;52.116;5.286;2023-04-07T09:36:17;14.20;99.90
13817;DHT22;6979;52.116;5.286;2023-04-07T09:38:44;14.20;99.90
13817;DHT22;6979;52.116;5.286;2023-04-07T09:41:13;14.20;99.90
13817;DHT22;6979;52.116;5.286;2023-04-07T09:43:43;14.20;99.90
13817;DHT22;6979;52.116;5.286;2023-04-07T09:46:13;14.20;99.90
13817;DHT22;6979;52.116;5.286;2023-04-07T09:48:40;14.20;99.90
13817;DHT22;6979;52.116;5.286;2023-04-07T09:51:09;14.20;99.90
13817;DHT22;6979;52.116;5.286;2023-04-07T09:53:45;14.20;99.90
13817;DHT22;6979;52.116;5.286;2023-04-07T09:56:14;14.20;99.90
13817;DHT22;6979;52.116;5.286;2023-04-07T09:58:44;14.20;99.90
13817;DHT22;6979;52.116;5.286;2023-04-07T10:01:12;14.20;99.90
13817;DHT22;6979;52.116;5.286;2023-04-07T10:03:41;14.20;99.90
13817;DHT22;6979;52.116;5.286;2023-04-07T10:06:07;14.20;99.90
13817;DHT22;6979;52.116;5.286;2023-04-07T10:08:39;14.20;99.90
13817;DHT22;6979;52.116;5.286;2023-04-07T10:11:07;14.20;99.90
13817;DHT22;6979;52.116;5.286;2023-04-07T10:13:36;14.20;99.90
13817;DHT22;6979;52.116;5.286;2023-04-07T10:16:06;14.30;99.90
13817;DHT22;6979;52.116;5.286;2023-04-07T10:18:34;14.30;99.90
13817;DHT22;6979;52.116;5.286;2023-04-07T10:21:03;14.20;99.90
13817;DHT22;6979;52.116;5.286;2023-04-07T10:23:42;14.20;99.90
13817;DHT22;6979;52.116;5.286;2023-04-07T10:26:14;14.20;99.90
13817;DHT22;6979;52.116;5.286;2023-04-07T10:28:45;14.20;99.90
13817;DHT22;6979;52.116;5.286;2023-04-07T10:31:16;14.20;99.90
13817;DHT22;6979;52.116;5.286;2023-04-07T10:33:44;14.20;99.90
13817;DHT22;6979;52.116;5.286;2023-04-07T10:36:12;14.20;99.90
13817;DHT22;6979;52.116;5.286;2023-04-07T10:38:39;14.20;99.90
13817;DHT22;6979;52.116;5.286;2023-04-07T10:41:32;14.20;99.90
13817;DHT22;6979;52.116;5.286;2023-04-07T10:44:03;14.20;99.90
13817;DHT22;6979;52.116;5.286;2023-04-07T10:47:04;14.20;99.90
13817;DHT22;6979;52.116;5.286;2023-04-07T10:49:31;14.10;99.90
13817;DHT22;6979;52.116;5.286;2023-04-07T10:52:20;14.20;99.90
13817;DHT22;6979;52.116;5.286;2023-04-07T10:55:27;14.10;99.90
13817;DHT22;6979;52.116;5.286;2023-04-07T10:58:14;14.20;99.90
13817;DHT22;6979;52.116;5.286;2023-04-07T11:00:42;14.20;99.90
13817;DHT22;6979;52.116;5.286;2023-04-07T11:03:36;14.20;99.90
13817;DHT22;6979;52.116;5.286;2023-04-07T11:06:06;14.20;99.90
13817;DHT22;6979;52.116;5.286;2023-04-07T11:08:38;14.30;99.90
13817;DHT22;6979;52.116;5.286;2023-04-07T11:11:05;14.30;99.90
13817;DHT22;6979;52.116;5.286;2023-04-07T11:13:39;14.30;99.90
13817;DHT22;6979;52.116;5.286;2023-04-07T11:16:06;14.30;99.90
13817;DHT22;6979;52.116;5.286;2023-04-07T11:18:35;14.30;99.90
13817;DHT22;6979;52.116;5.286;2023-04-07T11:21:03;14.30;99.90
13817;DHT22;6979;52.116;5.286;2023-04-07T11:23:40;14.30;99.90
13817;DHT22;6979;52.116;5.286;2023-04-07T11:26:09;14.30;99.90
13817;DHT22;6979;52.116;5.286;2023-04-07T11:28:47;14.30;99.90
13817;DHT22;6979;52.116;5.286;2023-04-07T11:31:20;14.40;99.90
13817;DHT22;6979;52.116;5.286;2023-04-07T11:33:52;14.40;99.90
13817;DHT22;6979;52.116;5.286;2023-04-07T11:36:27;14.40;99.90
13817;DHT22;6979;52.116;5.286;2023-04-07T11:38:54;14.50;99.90
13817;DHT22;6979;52.116;5.286;2023-04-07T11:41:22;14.50;99.90
13817;DHT22;6979;52.116;5.286;2023-04-07T11:44:03;14.50;99.90
13817;DHT22;6979;52.116;5.286;2023-04-07T11:46:30;14.60;99.90
13817;DHT22;6979;52.116;5.286;2023-04-07T11:49:10;14.60;99.90
13817;DHT22;6979;52.116;5.286;2023-04-07T11:51:37;14.70;99.90
13817;DHT22;6979;52.116;5.286;2023-04-07T11:54:04;14.70;99.90
13817;DHT22;6979;52.116;5.286;2023-04-07T11:56:41;14.70;99.90
13817;DHT22;6979;52.116;5.286;2023-04-07T11:59:08;14.80;99.90
13817;DHT22;6979;52.116;5.286;2023-04-07T12:01:43;14.80;99.90
13817;DHT22;6979;52.116;5.286;2023-04-07T12:04:13;14.80;99.90
13817;DHT22;6979;52.116;5.286;2023-04-07T12:06:40;14.80;99.90
13817;DHT22;6979;52.116;5.286;2023-04-07T12:09:23;14.90;99.90
13817;DHT22;6979;52.116;5.286;2023-04-07T12:11:50;14.90;99.90
13817;DHT22;6979;52.116;5.286;2023-04-07T12:14:17;14.90;99.90
13817;DHT22;6979;52.116;5.286;2023-04-07T12:16:45;14.90;99.90
13817;DHT22;6979;52.116;5.286;2023-04-07T12:19:14;15.00;99.90
13817;DHT22;6979;52.116;5.286;2023-04-07T12:21:41;15.00;99.90
13817;DHT22;6979;52.116;5.286;2023-04-07T12:24:08;15.00;99.90
13817;DHT22;6979;52.116;5.286;2023-04-07T12:26:35;15.00;99.90
13817;DHT22;6979;52.116;5.286;2023-04-07T12:29:02;15.00;99.90
13817;DHT22;6979;52.116;5.286;2023-04-07T12:31:29;15.00;99.90
13817;DHT22;6979;52.116;5.286;2023-04-07T12:33:56;15.00;99.90
13817;DHT22;6979;52.116;5.286;2023-04-07T12:36:25;15.00;99.90
13817;DHT22;6979;52.116;5.286;2023-04-07T12:38:52;15.00;99.90
13817;DHT22;6979;52.116;5.286;2023-04-07T12:41:19;15.00;99.90
13817;DHT22;6979;52.116;5.286;2023-04-07T12:43:46;15.00;99.90
13817;DHT22;6979;52.116;5.286;2023-04-07T12:46:14;15.00;99.90
13817;DHT22;6979;52.116;5.286;2023-04-07T12:48:41;15.00;99.90
13817;DHT22;6979;52.116;5.286;2023-04-07T12:51:08;15.00;99.90
13817;DHT22;6979;52.116;5.286;2023-04-07T12:53:36;15.00;99.90
13817;DHT22;6979;52.116;5.286;2023-04-07T12:56:03;15.00;99.90
13817;DHT22;6979;52.116;5.286;2023-04-07T12:58:30;15.00;99.90
13817;DHT22;6979;52.116;5.286;2023-04-07T13:00:57;15.00;99.90
13817;DHT22;6979;52.116;5.286;2023-04-07T13:03:25;14.90;99.90
13817;DHT22;6979;52.116;5.286;2023-04-07T13:05:52;14.90;99.90
13817;DHT22;6979;52.116;5.286;2023-04-07T13:08:19;14.90;99.90
13817;DHT22;6979;52.116;5.286;2023-04-07T13:10:48;14.90;99.90
13817;DHT22;6979;52.116;5.286;2023-04-07T13:13:15;15.00;99.90
13817;DHT22;6979;52.116;5.286;2023-04-07T13:15:42;15.00;99.90
13817;DHT22;6979;52.116;5.286;2023-04-07T13:18:09;15.00;99.90
13817;DHT22;6979;52.116;5.286;2023-04-07T13:20:36;15.00;99.90
13817;DHT22;6979;52.116;5.286;2023-04-07T13:23:03;15.00;99.90
13817;DHT22;6979;52.116;5.286;2023-04-07T13:25:30;15.00;99.90
13817;DHT22;6979;52.116;5.286;2023-04-07T13:27:58;15.00;99.90
13817;DHT22;6979;52.116;5.286;2023-04-07T13:30:25;15.00;99.90
13817;DHT22;6979;52.116;5.286;2023-04-07T13:32:52;15.10;99.90
13817;DHT22;6979;52.116;5.286;2023-04-07T13:35:19;15.10;99.90
13817;DHT22;6979;52.116;5.286;2023-04-07T13:37:46;15.10;99.90
13817;DHT22;6979;52.116;5.286;2023-04-07T13:40:13;15.10;99.90
13817;DHT22;6979;52.116;5.286;2023-04-07T13:42:40;15.10;99.90
13817;DHT22;6979;52.116;5.286;2023-04-07T13:45:08;15.20;99.90
13817;DHT22;6979;52.116;5.286;2023-04-07T13:47:35;15.20;99.90
13817;DHT22;6979;52.116;5.286;2023-04-07T13:50:04;15.20;99.90
13817;DHT22;6979;52.116;5.286;2023-04-07T13:52:31;15.20;99.90
13817;DHT22;6979;52.116;5.286;2023-04-07T13:54:59;15.30;99.90
13817;DHT22;6979;52.116;5.286;2023-04-07T13:57:26;15.30;99.90
13817;DHT22;6979;52.116;5.286;2023-04-07T13:59:53;15.30;99.90
13817;DHT22;6979;52.116;5.286;2023-04-07T14:02:22;15.30;99.90
13817;DHT22;6979;52.116;5.286;2023-04-07T14:04:52;15.30;99.90
13817;DHT22;6979;52.116;5.286;2023-04-07T14:07:20;15.30;99.90
13817;DHT22;6979;52.116;5.286;2023-04-07T14:09:47;15.20;99.90
13817;DHT22;6979;52.116;5.286;2023-04-07T14:12:14;15.20;99.90
13817;DHT22;6979;52.116;5.286;2023-04-07T14:14:41;15.20;99.90
13817;DHT22;6979;52.116;5.286;2023-04-07T14:17:08;15.20;99.90
13817;DHT22;6979;52.116;5.286;2023-04-07T14:19:36;15.10;99.90
13817;DHT22;6979;52.116;5.286;2023-04-07T14:22:03;15.10;99.90
13817;DHT22;6979;52.116;5.286;2023-04-07T14:24:30;15.10;99.90
13817;DHT22;6979;52.116;5.286;2023-04-07T14:26:57;15.10;99.90
13817;DHT22;6979;52.116;5.286;2023-04-07T14:29:26;15.00;99.90
13817;DHT22;6979;52.116;5.286;2023-04-07T14:31:53;15.00;99.90
13817;DHT22;6979;52.116;5.286;2023-04-07T14:34:20;15.00;99.90
13817;DHT22;6979;52.116;5.286;2023-04-07T14:36:54;15.00;99.90
13817;DHT22;6979;52.116;5.286;2023-04-07T14:39:24;15.00;99.90
13817;DHT22;6979;52.116;5.286;2023-04-07T14:41:51;15.00;99.90
13817;DHT22;6979;52.116;5.286;2023-04-07T14:44:18;15.00;99.90
13817;DHT22;6979;52.116;5.286;2023-04-07T14:46:48;15.00;99.90
13817;DHT22;6979;52.116;5.286;2023-04-07T14:49:15;15.00;99.90
13817;DHT22;6979;52.116;5.286;2023-04-07T14:51:42;15.00;99.90
13817;DHT22;6979;52.116;5.286;2023-04-07T14:54:11;15.00;99.90
13817;DHT22;6979;52.116;5.286;2023-04-07T14:56:38;15.00;99.90
13817;DHT22;6979;52.116;5.286;2023-04-07T14:59:06;15.00;99.90
13817;DHT22;6979;52.116;5.286;2023-04-07T15:01:33;14.90;99.90
13817;DHT22;6979;52.116;5.286;2023-04-07T15:04:00;15.00;99.90
13817;DHT22;6979;52.116;5.286;2023-04-07T15:06:26;15.00;99.90
13817;DHT22;6979;52.116;5.286;2023-04-07T15:08:53;15.00;99.90
13817;DHT22;6979;52.116;5.286;2023-04-07T15:11:22;14.90;99.90
13817;DHT22;6979;52.116;5.286;2023-04-07T15:13:49;14.90;99.90
13817;DHT22;6979;52.116;5.286;2023-04-07T15:16:15;14.90;99.90
13817;DHT22;6979;52.116;5.286;2023-04-07T15:18:44;14.90;99.90
13817;DHT22;6979;52.116;5.286;2023-04-07T15:21:12;14.90;99.90
13817;DHT22;6979;52.116;5.286;2023-04-07T15:23:39;14.90;99.90
13817;DHT22;6979;52.116;5.286;2023-04-07T15:26:07;14.90;99.90
13817;DHT22;6979;52.116;5.286;2023-04-07T15:28:36;14.90;99.90
13817;DHT22;6979;52.116;5.286;2023-04-07T15:31:03;14.90;99.90
13817;DHT22;6979;52.116;5.286;2023-04-07T15:33:33;14.90;99.90
13817;DHT22;6979;52.116;5.286;2023-04-07T15:36:01;14.90;99.90
13817;DHT22;6979;52.116;5.286;2023-04-07T15:38:28;14.90;99.90
13817;DHT22;6979;52.116;5.286;2023-04-07T15:40:55;14.80;99.90
13817;DHT22;6979;52.116;5.286;2023-04-07T15:43:22;14.80;99.90
13817;DHT22;6979;52.116;5.286;2023-04-07T15:45:50;14.80;99.90
13817;DHT22;6979;52.116;5.286;2023-04-07T15:48:17;14.80;99.90
13817;DHT22;6979;52.116;5.286;2023-04-07T15:50:44;14.80;99.90
13817;DHT22;6979;52.116;5.286;2023-04-07T15:53:12;14.80;99.90
13817;DHT22;6979;52.116;5.286;2023-04-07T15:55:39;14.70;99.90
13817;DHT22;6979;52.116;5.286;2023-04-07T15:58:06;14.70;99.90
13817;DHT22;6979;52.116;5.286;2023-04-07T16:00:37;14.70;99.90